sensor_id;sensor_type;location;lat;lon;timestamp;pressure;altitude;pressure_sealevel;temperature;humidity
77192;BME280;66172;48.526;8.078;2023-02-01T00:01:20;100486.09;;;5.11;76.20
77192;BME280;66172;48.526;8.078;2023-02-01T00:03:46;100477.88;;;5.31;75.27
77192;BME280;66172;48.526;8.078;2023-02-01T00:06:11;100464.72;;;5.25;75.93
77192;BME280;66172;48.526;8.078;2023-02-01T00:08:37;100461.75;;;5.26;75.94
77192;BME280;66172;48.526;8.078;2023-02-01T00:11:07;100455.63;;;5.11;77.00
77192;BME280;66172;48.526;8.078;2023-02-01T00:13:35;100458.25;;;5.21;76.05
77192;BME280;66172;48.526;8.078;2023-02-01T00:16:27;100457.44;;;5.30;76.13
77192;BME280;66172;48.526;8.078;2023-02-01T00:19:02;100451.78;;;5.27;75.30
77192;BME280;66172;48.526;8.078;2023-02-01T00:21:29;100441.63;;;5.09;76.88
77192;BME280;66172;48.526;8.078;2023-02-01T00:23:56;100447.59;;;5.06;76.55
77192;BME280;66172;48.526;8.078;2023-02-01T00:26:27;100433.03;;;5.07;76.75
77192;BME280;66172;48.526;8.078;2023-02-01T00:28:55;100438.16;;;5.03;76.84
77192;BME280;66172;48.526;8.078;2023-02-01T00:31:21;100421.44;;;5.01;76.59
77192;BME280;66172;48.526;8.078;2023-02-01T00:33:48;100425.22;;;5.00;76.67
77192;BME280;66172;48.526;8.078;2023-02-01T00:36:14;100431.41;;;5.00;76.71
77192;BME280;66172;48.526;8.078;2023-02-01T00:38:40;100412.78;;;5.09;76.61
77192;BME280;66172;48.526;8.078;2023-02-01T00:41:14;100414.69;;;5.09;75.98
77192;BME280;66172;48.526;8.078;2023-02-01T00:43:41;100411.41;;;5.17;75.71
77192;BME280;66172;48.526;8.078;2023-02-01T00:46:07;100416.47;;;5.23;75.24
77192;BME280;66172;48.526;8.078;2023-02-01T00:48:33;100410.03;;;5.19;75.87
77192;BME280;66172;48.526;8.078;2023-02-01T00:51:00;100405.69;;;5.23;75.10
77192;BME280;66172;48.526;8.078;2023-02-01T00:53:27;100410.59;;;5.16;75.52
77192;BME280;66172;48.526;8.078;2023-02-01T00:55:53;100408.47;;;5.13;75.60
77192;BME280;66172;48.526;8.078;2023-02-01T00:58:19;100402.25;;;5.13;75.24
77192;BME280;66172;48.526;8.078;2023-02-01T01:00:45;100400.88;;;5.15;75.33
77192;BME280;66172;48.526;8.078;2023-02-01T01:03:12;100396.31;;;5.16;75.86
77192;BME280;66172;48.526;8.078;2023-02-01T01:05:45;100393.03;;;5.19;75.26
77192;BME280;66172;48.526;8.078;2023-02-01T01:08:11;100395.22;;;5.17;75.26
77192;BME280;66172;48.526;8.078;2023-02-01T01:10:36;100390.88;;;5.21;75.05
77192;BME280;66172;48.526;8.078;2023-02-01T01:13:02;100390.34;;;5.19;75.65
77192;BME280;66172;48.526;8.078;2023-02-01T01:15:28;100394.13;;;5.18;75.30
77192;BME280;66172;48.526;8.078;2023-02-01T01:17:54;100402.75;;;5.20;75.62
77192;BME280;66172;48.526;8.078;2023-02-01T01:20:20;100405.13;;;5.26;75.28
77192;BME280;66172;48.526;8.078;2023-02-01T01:22:47;100400.56;;;5.27;75.07
77192;BME280;66172;48.526;8.078;2023-02-01T01:25:14;100397.22;;;5.40;73.95
77192;BME280;66172;48.526;8.078;2023-02-01T01:27:40;100397.22;;;5.40;74.27
77192;BME280;66172;48.526;8.078;2023-02-01T01:30:06;100406.44;;;5.34;74.59
77192;BME280;66172;48.526;8.078;2023-02-01T01:32:33;100405.09;;;5.31;74.50
77192;BME280;66172;48.526;8.078;2023-02-01T01:34:59;100401.38;;;5.27;75.54
77192;BME280;66172;48.526;8.078;2023-02-01T01:37:24;100405.94;;;5.27;75.88
77192;BME280;66172;48.526;8.078;2023-02-01T01:39:50;100409.22;;;5.24;75.80
77192;BME280;66172;48.526;8.078;2023-02-01T01:42:16;100398.66;;;5.27;75.41
77192;BME280;66172;48.526;8.078;2023-02-01T01:45:07;100404.56;;;5.29;76.21
77192;BME280;66172;48.526;8.078;2023-02-01T01:47:40;100393.59;;;5.16;76.40
77192;BME280;66172;48.526;8.078;2023-02-01T01:50:12;100395.50;;;5.15;76.37
77192;BME280;66172;48.526;8.078;2023-02-01T01:52:40;100395.22;;;5.17;75.91
77192;BME280;66172;48.526;8.078;2023-02-01T01:55:06;100394.69;;;5.15;76.22
77192;BME280;66172;48.526;8.078;2023-02-01T01:57:35;100391.16;;;5.19;75.93
77192;BME280;66172;48.526;8.078;2023-02-01T02:00:13;100384.69;;;5.20;75.33
77192;BME280;66172;48.526;8.078;2023-02-01T02:02:44;100384.16;;;5.18;75.64
77192;BME280;66172;48.526;8.078;2023-02-01T02:05:12;100387.38;;;5.20;75.67
77192;BME280;66172;48.526;8.078;2023-02-01T02:07:42;100395.47;;;5.20;75.33
77192;BME280;66172;48.526;8.078;2023-02-01T02:10:10;100390.03;;;5.25;75.38
77192;BME280;66172;48.526;8.078;2023-02-01T02:12:39;100384.88;;;5.29;75.21
77192;BME280;66172;48.526;8.078;2023-02-01T02:15:10;100391.41;;;5.23;75.46
77192;BME280;66172;48.526;8.078;2023-02-01T02:18:01;100385.97;;;5.28;75.55
77192;BME280;66172;48.526;8.078;2023-02-01T02:20:52;100377.38;;;5.21;75.99
77192;BME280;66172;48.526;8.078;2023-02-01T02:26:56;100366.97;;;5.09;76.21
77192;BME280;66172;48.526;8.078;2023-02-01T02:35:14;100364.53;;;5.13;76.07
77192;BME280;66172;48.526;8.078;2023-02-01T02:37:52;100351.03;;;5.13;75.45
77192;BME280;66172;48.526;8.078;2023-02-01T02:40:32;100352.66;;;5.14;76.42
77192;BME280;66172;48.526;8.078;2023-02-01T02:43:11;100361.00;;;5.12;75.83
77192;BME280;66172;48.526;8.078;2023-02-01T02:46:15;100365.09;;;5.04;75.90
77192;BME280;66172;48.526;8.078;2023-02-01T02:49:12;100373.94;;;5.15;75.08
77192;BME280;66172;48.526;8.078;2023-02-01T02:52:09;100362.09;;;5.11;75.35
77192;BME280;66172;48.526;8.078;2023-02-01T02:54:57;100362.59;;;5.18;74.56
77192;BME280;66172;48.526;8.078;2023-02-01T02:57:30;100362.81;;;5.27;74.79
77192;BME280;66172;48.526;8.078;2023-02-01T03:00:22;100366.50;;;5.36;74.75
77192;BME280;66172;48.526;8.078;2023-02-01T03:03:07;100361.19;;;5.26;74.33
77192;BME280;66172;48.526;8.078;2023-02-01T03:05:52;100367.09;;;5.28;74.11
77192;BME280;66172;48.526;8.078;2023-02-01T03:08:19;100373.22;;;5.38;74.02
77192;BME280;66172;48.526;8.078;2023-02-01T03:11:05;100372.47;;;5.33;73.39
77192;BME280;66172;48.526;8.078;2023-02-01T03:13:55;100387.56;;;5.34;73.55
77192;BME280;66172;48.526;8.078;2023-02-01T03:16:25;100385.13;;;5.32;73.94
77192;BME280;66172;48.526;8.078;2023-02-01T03:21:41;100388.63;;;5.33;73.21
77192;BME280;66172;48.526;8.078;2023-02-01T03:24:12;100376.78;;;5.34;73.47
77192;BME280;66172;48.526;8.078;2023-02-01T03:26:43;100385.69;;;5.34;73.89
77192;BME280;66172;48.526;8.078;2023-02-01T03:29:16;100383.00;;;5.29;74.62
77192;BME280;66172;48.526;8.078;2023-02-01T03:31:43;100387.34;;;5.25;74.33
77192;BME280;66172;48.526;8.078;2023-02-01T03:34:11;100379.22;;;5.30;73.77
77192;BME280;66172;48.526;8.078;2023-02-01T03:36:52;100385.97;;;5.28;73.77
77192;BME280;66172;48.526;8.078;2023-02-01T03:39:29;100383.47;;;5.41;73.10
77192;BME280;66172;48.526;8.078;2023-02-01T03:42:27;100380.22;;;5.39;73.38
77192;BME280;66172;48.526;8.078;2023-02-01T03:47:30;100356.88;;;5.25;74.64
77192;BME280;66172;48.526;8.078;2023-02-01T03:50:03;100350.41;;;5.26;74.13
77192;BME280;66172;48.526;8.078;2023-02-01T03:52:50;100339.09;;;5.24;74.08
77192;BME280;66172;48.526;8.078;2023-02-01T03:55:20;100339.59;;;5.31;74.07
77192;BME280;66172;48.526;8.078;2023-02-01T03:57:57;100343.63;;;5.28;73.75
77192;BME280;66172;48.526;8.078;2023-02-01T04:00:26;100342.44;;;5.44;73.30
77192;BME280;66172;48.526;8.078;2023-02-01T04:02:52;100322.44;;;5.45;73.21
77192;BME280;66172;48.526;8.078;2023-02-01T04:05:19;100310.19;;;5.29;73.51
77192;BME280;66172;48.526;8.078;2023-02-01T04:07:44;100320.47;;;5.27;73.66
77192;BME280;66172;48.526;8.078;2023-02-01T04:10:11;100307.00;;;5.27;73.45
77192;BME280;66172;48.526;8.078;2023-02-01T04:12:37;100306.44;;;5.25;73.56
77192;BME280;66172;48.526;8.078;2023-02-01T04:15:04;100307.78;;;5.28;73.37
77192;BME280;66172;48.526;8.078;2023-02-01T04:17:30;100308.88;;;5.27;73.17
77192;BME280;66172;48.526;8.078;2023-02-01T04:19:56;100314.28;;;5.27;73.42
77192;BME280;66172;48.526;8.078;2023-02-01T04:22:22;100323.72;;;5.24;73.32
77192;BME280;66172;48.526;8.078;2023-02-01T04:24:48;100324.00;;;5.23;73.18
77192;BME280;66172;48.526;8.078;2023-02-01T04:27:14;100328.03;;;5.25;72.86
77192;BME280;66172;48.526;8.078;2023-02-01T04:29:40;100338.06;;;5.20;73.53
77192;BME280;66172;48.526;8.078;2023-02-01T04:32:07;100340.75;;;5.20;74.26
77192;BME280;66172;48.526;8.078;2023-02-01T04:34:33;100339.63;;;5.21;73.83
77192;BME280;66172;48.526;8.078;2023-02-01T04:36:58;100344.16;;;5.30;72.97
77192;BME280;66172;48.526;8.078;2023-02-01T04:39:24;100352.03;;;5.27;73.39
77192;BME280;66172;48.526;8.078;2023-02-01T04:41:50;100347.94;;;5.29;72.93
77192;BME280;66172;48.526;8.078;2023-02-01T04:44:17;100336.59;;;5.32;73.30
77192;BME280;66172;48.526;8.078;2023-02-01T04:46:44;100324.75;;;5.28;73.25
77192;BME280;66172;48.526;8.078;2023-02-01T04:49:11;100334.72;;;5.28;72.99
77192;BME280;66172;48.526;8.078;2023-02-01T04:51:38;100343.69;;;5.23;73.65
77192;BME280;66172;48.526;8.078;2023-02-01T04:54:04;100346.91;;;5.25;73.50
77192;BME280;66172;48.526;8.078;2023-02-01T04:56:30;100355.28;;;5.24;73.45
77192;BME280;66172;48.526;8.078;2023-02-01T04:58:56;100338.53;;;5.27;72.90
77192;BME280;66172;48.526;8.078;2023-02-01T05:01:23;100337.41;;;5.33;72.33
77192;BME280;66172;48.526;8.078;2023-02-01T05:03:50;100336.31;;;5.34;72.33
77192;BME280;66172;48.526;8.078;2023-02-01T05:06:16;100350.78;;;5.48;71.54
77192;BME280;66172;48.526;8.078;2023-02-01T05:08:42;100343.44;;;5.53;70.96
77192;BME280;66172;48.526;8.078;2023-02-01T05:11:08;100331.03;;;5.52;71.89
77192;BME280;66172;48.526;8.078;2023-02-01T05:13:54;100356.09;;;5.58;71.17
77192;BME280;66172;48.526;8.078;2023-02-01T05:16:20;100349.78;;;5.68;70.31
77192;BME280;66172;48.526;8.078;2023-02-01T05:18:46;100364.53;;;5.80;69.57
77192;BME280;66172;48.526;8.078;2023-02-01T05:21:12;100357.75;;;5.83;69.40
77192;BME280;66172;48.526;8.078;2023-02-01T05:23:38;100362.84;;;5.89;69.81
77192;BME280;66172;48.526;8.078;2023-02-01T05:26:24;100360.22;;;5.79;69.53
77192;BME280;66172;48.526;8.078;2023-02-01T05:28:50;100365.03;;;5.87;69.53
77192;BME280;66172;48.526;8.078;2023-02-01T05:31:16;100377.72;;;5.87;69.37
77192;BME280;66172;48.526;8.078;2023-02-01T05:33:42;100387.19;;;5.79;69.99
77192;BME280;66172;48.526;8.078;2023-02-01T05:36:08;100366.13;;;6.10;68.18
77192;BME280;66172;48.526;8.078;2023-02-01T05:38:34;100393.81;;;5.97;69.30
77192;BME280;66172;48.526;8.078;2023-02-01T05:41:00;100380.81;;;5.99;68.90
77192;BME280;66172;48.526;8.078;2023-02-01T05:43:26;100384.88;;;6.01;68.65
77192;BME280;66172;48.526;8.078;2023-02-01T05:45:52;100392.09;;;6.06;68.63
77192;BME280;66172;48.526;8.078;2023-02-01T05:48:18;100386.00;;;5.95;69.25
77192;BME280;66172;48.526;8.078;2023-02-01T05:50:44;100393.72;;;6.07;68.69
77192;BME280;66172;48.526;8.078;2023-02-01T05:53:11;100393.19;;;6.05;69.17
77192;BME280;66172;48.526;8.078;2023-02-01T05:55:38;100403.06;;;5.91;70.41
77192;BME280;66172;48.526;8.078;2023-02-01T05:58:04;100415.81;;;5.80;70.76
77192;BME280;66172;48.526;8.078;2023-02-01T06:00:31;100404.13;;;5.85;70.52
77192;BME280;66172;48.526;8.078;2023-02-01T06:02:57;100414.19;;;5.79;71.02
77192;BME280;66172;48.526;8.078;2023-02-01T06:05:23;100416.91;;;5.74;71.04
77192;BME280;66172;48.526;8.078;2023-02-01T06:07:49;100422.22;;;5.84;71.03
77192;BME280;66172;48.526;8.078;2023-02-01T06:10:18;100415.16;;;5.93;70.20
77192;BME280;66172;48.526;8.078;2023-02-01T06:12:45;100410.69;;;5.79;71.12
77192;BME280;66172;48.526;8.078;2023-02-01T06:15:12;100408.25;;;5.77;70.82
77192;BME280;66172;48.526;8.078;2023-02-01T06:17:41;100395.81;;;5.86;69.90
77192;BME280;66172;48.526;8.078;2023-02-01T06:20:10;100414.50;;;5.73;71.18
77192;BME280;66172;48.526;8.078;2023-02-01T06:22:36;100420.03;;;5.58;73.04
77192;BME280;66172;48.526;8.078;2023-02-01T06:25:06;100417.41;;;5.47;74.77
77192;BME280;66172;48.526;8.078;2023-02-01T06:27:33;100414.06;;;5.61;74.48
77192;BME280;66172;48.526;8.078;2023-02-01T06:29:58;100402.78;;;5.53;74.52
77192;BME280;66172;48.526;8.078;2023-02-01T06:32:24;100409.09;;;5.39;75.15
77192;BME280;66172;48.526;8.078;2023-02-01T06:34:50;100410.47;;;5.31;76.30
77192;BME280;66172;48.526;8.078;2023-02-01T06:37:18;100411.59;;;5.30;76.03
77192;BME280;66172;48.526;8.078;2023-02-01T06:39:45;100412.94;;;5.28;76.65
77192;BME280;66172;48.526;8.078;2023-02-01T06:42:11;100412.88;;;5.38;75.38
77192;BME280;66172;48.526;8.078;2023-02-01T06:44:36;100424.16;;;5.45;75.19
77192;BME280;66172;48.526;8.078;2023-02-01T06:47:03;100436.19;;;5.58;74.30
77192;BME280;66172;48.526;8.078;2023-02-01T06:49:29;100428.38;;;5.56;74.23
77192;BME280;66172;48.526;8.078;2023-02-01T06:51:55;100416.72;;;5.66;73.92
77192;BME280;66172;48.526;8.078;2023-02-01T06:54:21;100423.78;;;5.57;74.23
77192;BME280;66172;48.526;8.078;2023-02-01T06:56:47;100430.56;;;5.54;74.44
77192;BME280;66172;48.526;8.078;2023-02-01T06:59:13;100440.88;;;5.42;75.36
77192;BME280;66172;48.526;8.078;2023-02-01T07:01:39;100442.25;;;5.39;75.09
77192;BME280;66172;48.526;8.078;2023-02-01T07:04:05;100441.19;;;5.35;75.47
77192;BME280;66172;48.526;8.078;2023-02-01T07:06:31;100438.47;;;5.40;75.14
77192;BME280;66172;48.526;8.078;2023-02-01T07:08:57;100434.22;;;5.29;75.88
77192;BME280;66172;48.526;8.078;2023-02-01T07:11:23;100422.88;;;5.32;75.53
77192;BME280;66172;48.526;8.078;2023-02-01T07:13:49;100424.44;;;5.43;75.06
77192;BME280;66172;48.526;8.078;2023-02-01T07:16:17;100438.66;;;5.54;74.23
77192;BME280;66172;48.526;8.078;2023-02-01T07:18:44;100435.47;;;5.47;74.21
77192;BME280;66172;48.526;8.078;2023-02-01T07:21:10;100416.84;;;5.45;74.81
77192;BME280;66172;48.526;8.078;2023-02-01T07:23:36;100421.50;;;5.40;74.92
77192;BME280;66172;48.526;8.078;2023-02-01T07:26:05;100428.44;;;5.51;75.06
77192;BME280;66172;48.526;8.078;2023-02-01T07:28:34;100423.34;;;5.44;74.63
77192;BME280;66172;48.526;8.078;2023-02-01T07:33:30;100426.53;;;5.51;74.50
77192;BME280;66172;48.526;8.078;2023-02-01T07:35:56;100432.75;;;5.52;75.24
77192;BME280;66172;48.526;8.078;2023-02-01T07:38:22;100436.84;;;5.44;75.08
77192;BME280;66172;48.526;8.078;2023-02-01T07:40:49;100463.59;;;5.75;74.49
77192;BME280;66172;48.526;8.078;2023-02-01T07:43:15;100449.09;;;5.66;74.43
77192;BME280;66172;48.526;8.078;2023-02-01T07:45:41;100455.34;;;5.61;74.10
77192;BME280;66172;48.526;8.078;2023-02-01T07:48:07;100445.09;;;5.58;74.51
77192;BME280;66172;48.526;8.078;2023-02-01T07:50:33;100460.16;;;5.64;73.67
77192;BME280;66172;48.526;8.078;2023-02-01T07:53:00;100455.19;;;5.86;73.45
77192;BME280;66172;48.526;8.078;2023-02-01T07:55:26;100466.63;;;5.63;74.09
77192;BME280;66172;48.526;8.078;2023-02-01T07:57:52;100462.66;;;5.56;74.80
77192;BME280;66172;48.526;8.078;2023-02-01T08:00:19;100454.50;;;5.66;73.76
77192;BME280;66172;48.526;8.078;2023-02-01T08:03:04;100459.91;;;5.61;74.12
77192;BME280;66172;48.526;8.078;2023-02-01T08:05:30;100464.19;;;5.67;74.24
77192;BME280;66172;48.526;8.078;2023-02-01T08:07:56;100442.91;;;5.60;74.24
77192;BME280;66172;48.526;8.078;2023-02-01T08:10:22;100453.97;;;5.64;73.98
77192;BME280;66172;48.526;8.078;2023-02-01T08:12:48;100446.09;;;5.67;73.38
77192;BME280;66172;48.526;8.078;2023-02-01T08:15:15;100453.38;;;5.67;73.60
77192;BME280;66172;48.526;8.078;2023-02-01T08:17:50;100445.91;;;5.59;73.22
77192;BME280;66172;48.526;8.078;2023-02-01T08:20:17;100448.56;;;5.64;72.44
77192;BME280;66172;48.526;8.078;2023-02-01T08:22:44;100450.19;;;5.65;72.07
77192;BME280;66172;48.526;8.078;2023-02-01T08:25:10;100453.88;;;5.74;71.50
77192;BME280;66172;48.526;8.078;2023-02-01T08:27:37;100467.59;;;5.82;70.66
77192;BME280;66172;48.526;8.078;2023-02-01T08:30:04;100467.22;;;5.99;69.23
77192;BME280;66172;48.526;8.078;2023-02-01T08:32:30;100457.31;;;5.89;70.73
77192;BME280;66172;48.526;8.078;2023-02-01T08:34:56;100455.69;;;5.88;70.10
77192;BME280;66172;48.526;8.078;2023-02-01T08:37:22;100458.59;;;5.97;70.00
77192;BME280;66172;48.526;8.078;2023-02-01T08:39:48;100438.06;;;6.01;69.64
77192;BME280;66172;48.526;8.078;2023-02-01T08:42:16;100457.66;;;6.12;69.61
77192;BME280;66172;48.526;8.078;2023-02-01T08:45:01;100459.41;;;6.26;68.47
77192;BME280;66172;48.526;8.078;2023-02-01T08:47:28;100473.56;;;6.13;67.87
77192;BME280;66172;48.526;8.078;2023-02-01T08:49:54;100472.47;;;6.14;68.32
77192;BME280;66172;48.526;8.078;2023-02-01T08:52:20;100474.13;;;6.10;68.73
77192;BME280;66172;48.526;8.078;2023-02-01T08:54:46;100477.97;;;6.04;68.12
77192;BME280;66172;48.526;8.078;2023-02-01T08:57:12;100483.66;;;6.31;67.17
77192;BME280;66172;48.526;8.078;2023-02-01T08:59:38;100485.16;;;6.19;67.30
77192;BME280;66172;48.526;8.078;2023-02-01T09:02:04;100472.44;;;6.19;68.06
77192;BME280;66172;48.526;8.078;2023-02-01T09:04:30;100471.94;;;6.41;66.04
77192;BME280;66172;48.526;8.078;2023-02-01T09:06:56;100480.16;;;6.31;66.92
77192;BME280;66172;48.526;8.078;2023-02-01T09:09:23;100476.88;;;6.34;66.50
77192;BME280;66172;48.526;8.078;2023-02-01T09:11:49;100478.94;;;6.47;66.41
77192;BME280;66172;48.526;8.078;2023-02-01T09:14:18;100490.06;;;6.40;66.67
77192;BME280;66172;48.526;8.078;2023-02-01T09:16:44;100490.72;;;6.56;66.06
77192;BME280;66172;48.526;8.078;2023-02-01T09:19:10;100499.63;;;6.57;66.51
77192;BME280;66172;48.526;8.078;2023-02-01T09:21:36;100492.44;;;6.47;66.16
77192;BME280;66172;48.526;8.078;2023-02-01T09:24:02;100483.66;;;6.60;64.88
77192;BME280;66172;48.526;8.078;2023-02-01T09:26:29;100476.06;;;6.62;65.39
77192;BME280;66172;48.526;8.078;2023-02-01T09:28:55;100485.81;;;6.58;65.64
77192;BME280;66172;48.526;8.078;2023-02-01T09:31:21;100463.53;;;6.71;64.88
77192;BME280;66172;48.526;8.078;2023-02-01T09:33:47;100483.81;;;6.69;64.58
77192;BME280;66172;48.526;8.078;2023-02-01T09:36:13;100478.59;;;6.53;66.76
77192;BME280;66172;48.526;8.078;2023-02-01T09:38:38;100479.22;;;6.69;65.26
77192;BME280;66172;48.526;8.078;2023-02-01T09:44:16;100476.63;;;6.59;66.38
77192;BME280;66172;48.526;8.078;2023-02-01T09:46:46;100490.53;;;6.47;66.84
77192;BME280;66172;48.526;8.078;2023-02-01T09:49:18;100486.97;;;6.52;66.39
77192;BME280;66172;48.526;8.078;2023-02-01T09:51:48;100496.72;;;6.48;66.30
77192;BME280;66172;48.526;8.078;2023-02-01T09:54:42;100510.06;;;6.68;65.62
77192;BME280;66172;48.526;8.078;2023-02-01T09:57:25;100500.81;;;6.45;67.06
77192;BME280;66172;48.526;8.078;2023-02-01T10:00:14;100501.78;;;6.54;66.65
77192;BME280;66172;48.526;8.078;2023-02-01T10:02:42;100509.41;;;6.52;66.24
77192;BME280;66172;48.526;8.078;2023-02-01T10:05:13;100504.34;;;6.46;66.21
77192;BME280;66172;48.526;8.078;2023-02-01T10:20:04;100539.22;;;6.42;65.93
77192;BME280;66172;48.526;8.078;2023-02-01T10:22:45;100532.81;;;6.62;65.49
77192;BME280;66172;48.526;8.078;2023-02-01T10:25:29;100536.63;;;6.61;65.73
77192;BME280;66172;48.526;8.078;2023-02-01T10:28:00;100529.50;;;6.70;65.95
77192;BME280;66172;48.526;8.078;2023-02-01T10:30:37;100516.88;;;6.61;65.94
77192;BME280;66172;48.526;8.078;2023-02-01T10:36:16;100527.59;;;6.71;66.61
77192;BME280;66172;48.526;8.078;2023-02-01T10:38:43;100525.97;;;6.70;66.46
77192;BME280;66172;48.526;8.078;2023-02-01T10:41:13;100534.97;;;6.89;65.71
77192;BME280;66172;48.526;8.078;2023-02-01T10:43:41;100533.44;;;6.54;66.51
77192;BME280;66172;48.526;8.078;2023-02-01T10:46:07;100511.75;;;6.59;66.61
77192;BME280;66172;48.526;8.078;2023-02-01T10:48:34;100531.72;;;6.63;66.52
77192;BME280;66172;48.526;8.078;2023-02-01T10:51:05;100530.63;;;6.64;66.81
77192;BME280;66172;48.526;8.078;2023-02-01T10:53:50;100533.16;;;6.79;65.99
77192;BME280;66172;48.526;8.078;2023-02-01T10:56:26;100535.38;;;7.01;65.63
77192;BME280;66172;48.526;8.078;2023-02-01T10:59:02;100529.16;;;7.00;65.15
77192;BME280;66172;48.526;8.078;2023-02-01T11:01:36;100527.38;;;6.91;65.08
77192;BME280;66172;48.526;8.078;2023-02-01T11:04:05;100526.66;;;6.80;65.71
77192;BME280;66172;48.526;8.078;2023-02-01T11:06:37;100524.50;;;6.82;65.99
77192;BME280;66172;48.526;8.078;2023-02-01T11:11:32;100513.16;;;6.57;66.92
77192;BME280;66172;48.526;8.078;2023-02-01T11:14:00;100514.94;;;6.66;66.20
77192;BME280;66172;48.526;8.078;2023-02-01T11:16:36;100505.50;;;6.64;66.31
77192;BME280;66172;48.526;8.078;2023-02-01T11:19:03;100489.09;;;6.55;66.81
77192;BME280;66172;48.526;8.078;2023-02-01T11:21:29;100484.69;;;6.64;66.38
77192;BME280;66172;48.526;8.078;2023-02-01T11:24:00;100487.03;;;6.47;66.86
77192;BME280;66172;48.526;8.078;2023-02-01T11:26:27;100471.72;;;6.37;66.60
77192;BME280;66172;48.526;8.078;2023-02-01T11:28:58;100464.31;;;6.48;65.27
77192;BME280;66172;48.526;8.078;2023-02-01T11:31:26;100465.34;;;6.52;64.94
77192;BME280;66172;48.526;8.078;2023-02-01T11:33:57;100449.97;;;6.52;64.98
77192;BME280;66172;48.526;8.078;2023-02-01T11:36:29;100448.28;;;6.57;64.39
77192;BME280;66172;48.526;8.078;2023-02-01T11:41:43;100442.59;;;6.58;64.44
77192;BME280;66172;48.526;8.078;2023-02-01T11:44:23;100439.03;;;6.63;64.56
77192;BME280;66172;48.526;8.078;2023-02-01T11:46:52;100444.22;;;6.59;64.52
77192;BME280;66172;48.526;8.078;2023-02-01T11:49:24;100435.16;;;6.69;64.15
77192;BME280;66172;48.526;8.078;2023-02-01T11:52:09;100441.03;;;6.52;64.77
77192;BME280;66172;48.526;8.078;2023-02-01T11:55:05;100429.63;;;6.60;64.32
77192;BME280;66172;48.526;8.078;2023-02-01T11:57:57;100429.31;;;6.62;64.33
77192;BME280;66172;48.526;8.078;2023-02-01T12:06:54;100416.38;;;6.59;64.62
77192;BME280;66172;48.526;8.078;2023-02-01T12:12:14;100415.91;;;6.51;62.97
77192;BME280;66172;48.526;8.078;2023-02-01T12:17:51;100428.06;;;6.54;63.20
77192;BME280;66172;48.526;8.078;2023-02-01T12:31:24;100425.16;;;6.69;63.75
77192;BME280;66172;48.526;8.078;2023-02-01T12:39:30;100413.91;;;6.86;63.47
77192;BME280;66172;48.526;8.078;2023-02-01T12:42:10;100411.75;;;6.83;63.86
77192;BME280;66172;48.526;8.078;2023-02-01T12:44:59;100409.13;;;6.78;64.49
77192;BME280;66172;48.526;8.078;2023-02-01T12:47:30;100415.28;;;6.60;65.61
77192;BME280;66172;48.526;8.078;2023-02-01T12:50:14;100411.94;;;6.44;66.08
77192;BME280;66172;48.526;8.078;2023-02-01T12:52:49;100415.19;;;6.46;66.79
77192;BME280;66172;48.526;8.078;2023-02-01T12:55:17;100410.84;;;6.45;67.32
77192;BME280;66172;48.526;8.078;2023-02-01T12:57:50;100403.91;;;6.63;66.81
77192;BME280;66172;48.526;8.078;2023-02-01T13:00:36;100408.56;;;6.57;67.48
77192;BME280;66172;48.526;8.078;2023-02-01T13:05:53;100419.88;;;6.59;67.16
77192;BME280;66172;48.526;8.078;2023-02-01T13:08:29;100411.72;;;6.64;66.91
77192;BME280;66172;48.526;8.078;2023-02-01T13:11:03;100411.66;;;6.69;66.90
77192;BME280;66172;48.526;8.078;2023-02-01T13:16:21;100402.88;;;6.82;65.48
77192;BME280;66172;48.526;8.078;2023-02-01T13:18:59;100396.47;;;6.73;66.27
77192;BME280;66172;48.526;8.078;2023-02-01T13:21:31;100408.28;;;6.59;67.13
77192;BME280;66172;48.526;8.078;2023-02-01T13:23:57;100402.06;;;6.58;66.61
77192;BME280;66172;48.526;8.078;2023-02-01T13:26:24;100392.13;;;6.53;66.32
77192;BME280;66172;48.526;8.078;2023-02-01T13:29:05;100389.53;;;6.67;65.93
77192;BME280;66172;48.526;8.078;2023-02-01T13:37:35;100380.34;;;6.68;64.92
77192;BME280;66172;48.526;8.078;2023-02-01T13:43:26;100367.50;;;6.55;65.65
77192;BME280;66172;48.526;8.078;2023-02-01T13:45:56;100373.22;;;6.53;64.76
77192;BME280;66172;48.526;8.078;2023-02-01T13:48:28;100370.97;;;6.61;64.29
77192;BME280;66172;48.526;8.078;2023-02-01T13:50:57;100367.97;;;6.62;64.37
77192;BME280;66172;48.526;8.078;2023-02-01T13:53:31;100365.34;;;6.57;64.56
77192;BME280;66172;48.526;8.078;2023-02-01T13:56:07;100375.63;;;6.55;64.52
77192;BME280;66172;48.526;8.078;2023-02-01T13:58:37;100365.13;;;6.53;64.19
77192;BME280;66172;48.526;8.078;2023-02-01T14:11:48;100376.97;;;6.58;65.29
77192;BME280;66172;48.526;8.078;2023-02-01T14:16:40;100382.38;;;6.58;67.16
77192;BME280;66172;48.526;8.078;2023-02-01T14:19:26;100380.66;;;6.62;65.45
77192;BME280;66172;48.526;8.078;2023-02-01T14:21:59;100371.25;;;6.59;65.30
77192;BME280;66172;48.526;8.078;2023-02-01T14:24:29;100387.06;;;6.71;65.19
77192;BME280;66172;48.526;8.078;2023-02-01T14:26:58;100385.22;;;6.66;66.20
77192;BME280;66172;48.526;8.078;2023-02-01T14:29:34;100371.78;;;6.61;66.67
77192;BME280;66172;48.526;8.078;2023-02-01T14:32:15;100387.81;;;6.52;66.52
77192;BME280;66172;48.526;8.078;2023-02-01T14:42:37;100404.03;;;6.52;66.04
77192;BME280;66172;48.526;8.078;2023-02-01T14:47:49;100413.75;;;6.53;65.17
77192;BME280;66172;48.526;8.078;2023-02-01T14:50:34;100407.47;;;6.58;65.29
77192;BME280;66172;48.526;8.078;2023-02-01T14:55:50;100418.44;;;6.67;64.42
77192;BME280;66172;48.526;8.078;2023-02-01T15:01:02;100417.53;;;6.52;64.67
77192;BME280;66172;48.526;8.078;2023-02-01T15:05:58;100425.63;;;6.52;63.51
77192;BME280;66172;48.526;8.078;2023-02-01T15:08:31;100421.78;;;6.59;63.65
77192;BME280;66172;48.526;8.078;2023-02-01T15:11:00;100418.84;;;6.55;63.44
77192;BME280;66172;48.526;8.078;2023-02-01T15:13:29;100427.50;;;6.57;64.15